Time,TemperatureF,DewpointF,PressureIn,WindDirection,WindDirectionDegrees,WindSpeedMPH,WindSpeedGustMPH,Humidity,HourlyPrecipIn,Conditions,Clouds,dailyrainin,SoftwareType,DateUTC
2013-04-14 00:03:00,39.0,36.0,29.92,North,0,0.0,-999.0,86,-99.99,,,-99.99,,2013-04-14 04:03:00,
2013-04-14 00:12:00,39.0,36.0,29.92,North,0,0.0,-999.0,86,-99.99,,,-99.99,,2013-04-14 04:12:00,
2013-04-14 00:23:00,39.0,36.0,29.92,North,0,0.0,-999.0,86,-99.99,,,-99.99,,2013-04-14 04:23:00,
2013-04-14 00:33:00,39.0,36.0,29.92,North,0,0.0,-999.0,86,-99.99,,,-99.99,,2013-04-14 04:33:00,
2013-04-14 00:43:00,39.0,36.0,29.92,North,0,0.0,-999.0,86,-99.99,,,-99.99,,2013-04-14 04:43:00,
2013-04-14 00:52:00,39.0,36.0,29.93,North,0,0.0,-999.0,86,-99.99,,,-99.99,,2013-04-14 04:52:00,
2013-04-14 01:03:00,39.0,36.0,29.93,North,0,0.0,-999.0,86,-99.99,,,-99.99,,2013-04-14 05:03:00,
2013-04-14 01:12:00,39.0,36.0,29.93,North,0,0.0,-999.0,86,-99.99,,,-99.99,,2013-04-14 05:12:00,
2013-04-14 01:22:00,39.0,34.0,29.92,North,0,0.0,-999.0,80,-99.99,,,-99.99,,2013-04-14 05:22:00,
2013-04-14 01:32:00,39.0,34.0,29.92,North,0,0.0,-999.0,80,-99.99,,,-99.99,,2013-04-14 05:32:00,
2013-04-14 01:42:00,39.0,34.0,29.92,North,0,0.0,-999.0,80,-99.99,,,-99.99,,2013-04-14 05:42:00,
2013-04-14 01:52:00,39.0,34.0,29.92,West,260,3.0,-999.0,80,-99.99,,,-99.99,,2013-04-14 05:52:00,
2013-04-14 02:02:00,39.0,34.0,29.92,West,260,3.0,-999.0,80,-99.99,,,-99.99,,2013-04-14 06:02:00,
2013-04-14 02:12:00,39.0,34.0,29.93,WSW,250,3.0,-999.0,80,-99.99,,,-99.99,,2013-04-14 06:12:00,
2013-04-14 02:22:00,39.0,34.0,29.93,North,0,0.0,-999.0,80,-99.99,,,-99.99,,2013-04-14 06:22:00,
2013-04-14 02:32:00,39.0,34.0,29.93,West,280,3.0,-999.0,80,-99.99,,,-99.99,,2013-04-14 06:32:00,
2013-04-14 02:42:00,39.0,34.0,29.93,North,0,0.0,-999.0,80,-99.99,,,-99.99,,2013-04-14 06:42:00,
2013-04-14 02:52:00,39.0,34.0,29.93,North,0,0.0,-999.0,80,-99.99,,,-99.99,,2013-04-14 06:52:00,
2013-04-14 03:02:00,39.0,34.0,29.93,North,0,0.0,-999.0,80,-99.99,,,-99.99,,2013-04-14 07:02:00,
2013-04-14 03:12:00,37.0,34.0,29.93,North,0,0.0,-999.0,86,-99.99,,,-99.99,,2013-04-14 07:12:00,
2013-04-14 03:22:00,37.0,34.0,29.93,West,270,3.0,-999.0,86,-99.99,,,-99.99,,2013-04-14 07:22:00,
2013-04-14 03:32:00,37.0,34.0,29.93,North,0,0.0,-999.0,86,-99.99,,,-99.99,,2013-04-14 07:32:00,
2013-04-14 03:42:00,37.0,34.0,29.93,North,0,0.0,-999.0,86,-99.99,,,-99.99,,2013-04-14 07:42:00,
2013-04-14 03:52:00,39.0,32.0,29.93,West,270,3.0,-999.0,75,-99.99,,,-99.99,,2013-04-14 07:52:00,
2013-04-14 04:03:00,39.0,32.0,29.93,West,270,3.0,-999.0,75,-99.99,,,-99.99,,2013-04-14 08:03:00,
2013-04-14 04:12:00,39.0,32.0,29.93,North,0,0.0,-999.0,75,-99.99,,,-99.99,,2013-04-14 08:12:00,
2013-04-14 04:22:00,39.0,32.0,29.94,West,280,5.0,-999.0,75,-99.99,,,-99.99,,2013-04-14 08:22:00,
2013-04-14 04:32:00,37.0,32.0,29.94,West,270,3.0,-999.0,80,-99.99,,,-99.99,,2013-04-14 08:32:00,
2013-04-14 04:42:00,37.0,32.0,29.94,North,0,0.0,-999.0,80,-99.99,,,-99.99,,2013-04-14 08:42:00,
2013-04-14 04:52:00,37.0,32.0,29.94,WSW,250,3.0,-999.0,80,-99.99,,,-99.99,,2013-04-14 08:52:00,
2013-04-14 05:03:00,37.0,32.0,29.94,WSW,250,3.0,-999.0,80,-99.99,,,-99.99,,2013-04-14 09:03:00,
2013-04-14 05:12:00,37.0,32.0,29.94,SW,230,3.0,-999.0,80,-99.99,,,-99.99,,2013-04-14 09:12:00,
2013-04-14 05:22:00,37.0,32.0,29.95,West,260,5.0,-999.0,80,-99.99,,,-99.99,,2013-04-14 09:22:00,
2013-04-14 05:33:00,37.0,32.0,29.95,West,280,3.0,-999.0,80,-99.99,,,-99.99,,2013-04-14 09:33:00,
2013-04-14 05:42:00,37.0,32.0,29.96,North,0,0.0,-999.0,80,-99.99,,,-99.99,,2013-04-14 09:42:00,
2013-04-14 05:53:00,36.0,32.0,29.97,NNW,330,5.0,-999.0,86,-99.99,,,-99.99,,2013-04-14 09:53:00,
2013-04-14 06:03:00,36.0,32.0,29.97,NNW,330,5.0,-999.0,86,-99.99,,,-99.99,,2013-04-14 10:03:00,
2013-04-14 06:12:00,36.0,34.0,29.97,NNW,340,6.0,-999.0,93,-99.99,,,-99.99,,2013-04-14 10:12:00,
2013-04-14 06:23:00,36.0,32.0,29.97,NNW,330,6.0,-999.0,86,-99.99,,,-99.99,,2013-04-14 10:23:00,
2013-04-14 06:33:00,36.0,32.0,29.98,NW,310,5.0,-999.0,86,-99.99,,,-99.99,,2013-04-14 10:33:00,
2013-04-14 06:42:00,36.0,32.0,29.98,NNW,330,5.0,-999.0,86,-99.99,,,-99.99,,2013-04-14 10:42:00,
2013-04-14 06:52:00,36.0,32.0,29.99,North,350,5.0,-999.0,86,-99.99,,,-99.99,,2013-04-14 10:52:00,
2013-04-14 07:02:00,36.0,32.0,29.99,North,350,5.0,-999.0,86,-99.99,,,-99.99,,2013-04-14 11:02:00,
2013-04-14 07:12:00,36.0,32.0,30.00,North,0,0.0,-999.0,86,-99.99,,,-99.99,,2013-04-14 11:12:00,
2013-04-14 07:22:00,36.0,32.0,30.00,North,360,3.0,-999.0,86,-99.99,,,-99.99,,2013-04-14 11:22:00,
2013-04-14 07:32:00,36.0,32.0,30.00,North,350,3.0,-999.0,86,-99.99,,,-99.99,,2013-04-14 11:32:00,
2013-04-14 07:42:00,36.0,32.0,30.01,NNW,340,6.0,-999.0,86,-99.99,,,-99.99,,2013-04-14 11:42:00,
2013-04-14 07:52:00,36.0,32.0,30.01,NW,320,3.0,-999.0,86,-99.99,,,-99.99,,2013-04-14 11:52:00,
2013-04-14 08:02:00,36.0,32.0,30.01,NW,320,3.0,-999.0,86,-99.99,,,-99.99,,2013-04-14 12:02:00,
2013-04-14 08:12:00,36.0,30.0,30.02,West,280,3.0,-999.0,80,-99.99,,,-99.99,,2013-04-14 12:12:00,
2013-04-14 08:22:00,36.0,30.0,30.03,NW,310,5.0,-999.0,80,-99.99,,,-99.99,,2013-04-14 12:22:00,
2013-04-14 08:32:00,36.0,32.0,30.03,NNW,330,3.0,-999.0,86,-99.99,,,-99.99,,2013-04-14 12:32:00,
2013-04-14 08:42:00,36.0,32.0,30.03,North,0,0.0,-999.0,86,-99.99,,,-99.99,,2013-04-14 12:42:00,
2013-04-14 08:52:00,36.0,32.0,30.04,North,0,0.0,-999.0,86,-99.99,,,-99.99,,2013-04-14 12:52:00,
2013-04-14 09:02:00,36.0,32.0,30.04,North,0,0.0,-999.0,86,-99.99,,,-99.99,,2013-04-14 13:02:00,
2013-04-14 09:12:00,37.0,34.0,30.04,North,0,0.0,-999.0,86,-99.99,,,-99.99,,2013-04-14 13:12:00,
2013-04-14 09:22:00,37.0,32.0,30.03,West,280,7.0,-999.0,80,-99.99,,,-99.99,,2013-04-14 13:22:00,
2013-04-14 09:32:00,37.0,30.0,30.04,NW,320,6.0,-999.0,74,-99.99,,,-99.99,,2013-04-14 13:32:00,
2013-04-14 09:42:00,37.0,30.0,30.04,NW,310,10.0,-999.0,74,-99.99,,,-99.99,,2013-04-14 13:42:00,
2013-04-14 09:52:00,39.0,28.0,30.04,West,280,9.0,16.0,64,-99.99,,,-99.99,,2013-04-14 13:52:00,
2013-04-14 10:02:00,39.0,28.0,30.04,West,280,9.0,16.0,64,-99.99,,,-99.99,,2013-04-14 14:02:00,
2013-04-14 10:12:00,39.0,28.0,30.05,NW,320,9.0,16.0,64,-99.99,,,-99.99,,2013-04-14 14:12:00,
2013-04-14 10:22:00,39.0,28.0,30.05,WNW,290,7.0,-999.0,64,-99.99,,,-99.99,,2013-04-14 14:22:00,
2013-04-14 10:32:00,39.0,27.0,30.05,NNW,330,7.0,-999.0,60,-99.99,,,-99.99,,2013-04-14 14:32:00,
2013-04-14 10:42:00,39.0,27.0,30.05,NW,320,9.0,-999.0,60,-99.99,,,-99.99,,2013-04-14 14:42:00,
2013-04-14 10:52:00,39.0,27.0,30.05,NW,320,10.0,17.0,60,-99.99,,,-99.99,,2013-04-14 14:52:00,
2013-04-14 11:02:00,39.0,27.0,30.05,NW,320,10.0,17.0,60,-99.99,,,-99.99,,2013-04-14 15:02:00,
2013-04-14 11:12:00,39.0,27.0,30.06,West,280,8.0,16.0,60,-99.99,,,-99.99,,2013-04-14 15:12:00,
2013-04-14 11:22:00,39.0,27.0,30.06,WNW,300,9.0,-999.0,60,-99.99,,,-99.99,,2013-04-14 15:22:00,
2013-04-14 11:33:00,39.0,27.0,30.06,NNW,340,8.0,-999.0,60,-99.99,,,-99.99,,2013-04-14 15:33:00,
2013-04-14 11:43:00,39.0,27.0,30.07,NW,310,10.0,16.0,60,-99.99,,,-99.99,,2013-04-14 15:43:00,
2013-04-14 11:53:00,37.0,28.0,30.08,NW,310,5.0,-999.0,69,-99.99,,,-99.99,,2013-04-14 15:53:00,
2013-04-14 12:04:00,37.0,28.0,30.08,NW,310,5.0,-999.0,69,-99.99,,,-99.99,,2013-04-14 16:04:00,
2013-04-14 12:13:00,39.0,28.0,30.08,NNW,330,3.0,-999.0,64,-99.99,,,-99.99,,2013-04-14 16:13:00,
2013-04-14 12:23:00,39.0,27.0,30.08,NNW,330,10.0,-999.0,60,-99.99,,,-99.99,,2013-04-14 16:23:00,
2013-04-14 12:33:00,39.0,27.0,30.09,NW,320,10.0,-999.0,60,-99.99,,,-99.99,,2013-04-14 16:33:00,
2013-04-14 12:43:00,39.0,27.0,30.09,WNW,300,9.0,-999.0,60,-99.99,,,-99.99,,2013-04-14 16:43:00,
2013-04-14 12:53:00,39.0,27.0,30.10,NW,310,7.0,-999.0,60,-99.99,,,-99.99,,2013-04-14 16:53:00,
2013-04-14 13:02:00,39.0,27.0,30.10,NW,310,7.0,-999.0,60,-99.99,,,-99.99,,2013-04-14 17:02:00,
2013-04-14 13:13:00,39.0,27.0,30.11,North,350,7.0,-999.0,60,-99.99,,,-99.99,,2013-04-14 17:13:00,
2013-04-14 13:22:00,39.0,28.0,30.11,WNW,290,7.0,-999.0,64,-99.99,,,-99.99,,2013-04-14 17:22:00,
2013-04-14 13:33:00,41.0,28.0,30.11,West,270,3.0,-999.0,60,-99.99,,,-99.99,,2013-04-14 17:33:00,
2013-04-14 13:42:00,41.0,28.0,30.10,WSW,250,5.0,-999.0,60,-99.99,,,-99.99,,2013-04-14 17:42:00,
2013-04-14 13:52:00,43.0,27.0,30.10,West,280,8.0,-999.0,52,-99.99,,,-99.99,,2013-04-14 17:52:00,
2013-04-14 14:03:00,43.0,27.0,30.10,West,280,8.0,-999.0,52,-99.99,,,-99.99,,2013-04-14 18:03:00,
2013-04-14 14:12:00,39.0,28.0,30.11,WNW,300,8.0,-999.0,64,-99.99,,,-99.99,,2013-04-14 18:12:00,
2013-04-14 14:22:00,43.0,28.0,30.11,WNW,300,6.0,-999.0,56,-99.99,,,-99.99,,2013-04-14 18:22:00,
2013-04-14 14:32:00,43.0,27.0,30.11,WNW,300,7.0,-999.0,52,-99.99,,,-99.99,,2013-04-14 18:32:00,
2013-04-14 14:43:00,43.0,27.0,30.12,WNW,300,8.0,-999.0,52,-99.99,,,-99.99,,2013-04-14 18:43:00,
2013-04-14 14:52:00,43.0,27.0,30.12,WNW,290,6.0,-999.0,52,-99.99,,,-99.99,,2013-04-14 18:52:00,
2013-04-14 15:04:00,43.0,27.0,30.12,WNW,290,6.0,-999.0,52,-99.99,,,-99.99,,2013-04-14 19:04:00,
2013-04-14 15:12:00,43.0,27.0,30.12,NW,320,7.0,-999.0,52,-99.99,,,-99.99,,2013-04-14 19:12:00,
2013-04-14 15:22:00,43.0,27.0,30.12,NNW,340,8.0,-999.0,52,-99.99,,,-99.99,,2013-04-14 19:22:00,
2013-04-14 15:32:00,43.0,27.0,30.12,NNW,340,7.0,-999.0,52,-99.99,,,-99.99,,2013-04-14 19:32:00,
2013-04-14 15:42:00,43.0,27.0,30.12,WNW,300,3.0,-999.0,52,-99.99,,,-99.99,,2013-04-14 19:42:00,
2013-04-14 15:52:00,43.0,27.0,30.12,NNW,340,7.0,-999.0,52,-99.99,,,-99.99,,2013-04-14 19:52:00,
2013-04-14 16:03:00,43.0,27.0,30.12,NNW,340,7.0,-999.0,52,-99.99,,,-99.99,,2013-04-14 20:03:00,
2013-04-14 16:13:00,43.0,27.0,30.12,NW,310,9.0,-999.0,52,-99.99,,,-99.99,,2013-04-14 20:13:00,
2013-04-14 16:22:00,45.0,27.0,30.12,NNW,340,7.0,-999.0,48,-99.99,,,-99.99,,2013-04-14 20:22:00,
2013-04-14 16:33:00,43.0,27.0,30.12,NNW,340,8.0,-999.0,52,-99.99,,,-99.99,,2013-04-14 20:33:00,
2013-04-14 16:43:00,43.0,27.0,30.12,NNW,340,7.0,-999.0,52,-99.99,,,-99.99,,2013-04-14 20:43:00,
2013-04-14 16:52:00,43.0,27.0,30.12,NNW,330,5.0,-999.0,52,-99.99,,,-99.99,,2013-04-14 20:52:00,
2013-04-14 17:02:00,43.0,27.0,30.12,NNW,330,5.0,-999.0,52,-99.99,,,-99.99,,2013-04-14 21:02:00,
2013-04-14 17:12:00,45.0,27.0,30.12,NNW,340,6.0,-999.0,48,-99.99,,,-99.99,,2013-04-14 21:12:00,
2013-04-14 17:23:00,45.0,27.0,30.12,NNW,330,5.0,-999.0,48,-99.99,,,-99.99,,2013-04-14 21:23:00,
2013-04-14 17:33:00,45.0,27.0,30.12,NW,310,8.0,-999.0,48,-99.99,,,-99.99,,2013-04-14 21:33:00,
2013-04-14 17:43:00,45.0,27.0,30.12,NNW,340,6.0,-999.0,48,-99.99,,,-99.99,,2013-04-14 21:43:00,
2013-04-14 17:53:00,45.0,27.0,30.12,NW,310,5.0,-999.0,48,-99.99,,,-99.99,,2013-04-14 21:53:00,
2013-04-14 18:03:00,45.0,27.0,30.12,NW,310,5.0,-999.0,48,-99.99,,,-99.99,,2013-04-14 22:03:00,
2013-04-14 18:13:00,45.0,28.0,30.13,NNE,30,9.0,-999.0,52,-99.99,,,-99.99,,2013-04-14 22:13:00,
2013-04-14 18:23:00,45.0,27.0,30.14,North,360,5.0,-999.0,48,-99.99,,,-99.99,,2013-04-14 22:23:00,
2013-04-14 18:33:00,45.0,27.0,30.14,North,350,6.0,-999.0,48,-99.99,,,-99.99,,2013-04-14 22:33:00,
2013-04-14 18:43:00,45.0,27.0,30.14,NNW,330,8.0,-999.0,48,-99.99,,,-99.99,,2013-04-14 22:43:00,
2013-04-14 18:52:00,45.0,28.0,30.14,NNE,20,7.0,-999.0,52,-99.99,,,-99.99,,2013-04-14 22:52:00,
2013-04-14 19:02:00,45.0,28.0,30.14,NNE,20,7.0,-999.0,52,-99.99,,,-99.99,,2013-04-14 23:02:00,
2013-04-14 19:12:00,43.0,28.0,30.13,NNE,30,7.0,-999.0,56,-99.99,,,-99.99,,2013-04-14 23:12:00,
2013-04-14 19:22:00,43.0,28.0,30.14,North,10,5.0,-999.0,56,-99.99,,,-99.99,,2013-04-14 23:22:00,
2013-04-14 19:33:00,43.0,28.0,30.14,North,10,6.0,-999.0,56,-99.99,,,-99.99,,2013-04-14 23:33:00,
2013-04-14 19:43:00,43.0,28.0,30.15,North,360,5.0,-999.0,56,-99.99,,,-99.99,,2013-04-14 23:43:00,
2013-04-14 19:52:00,41.0,28.0,30.15,North,0,0.0,-999.0,60,-99.99,,,-99.99,,2013-04-14 23:52:00,
2013-04-14 20:02:00,41.0,28.0,30.15,North,0,0.0,-999.0,60,-99.99,,,-99.99,,2013-04-15 00:02:00,
2013-04-14 20:12:00,39.0,30.0,30.15,North,0,0.0,-999.0,69,-99.99,,,-99.99,,2013-04-15 00:12:00,
2013-04-14 20:23:00,37.0,30.0,30.15,North,0,0.0,-999.0,74,-99.99,,,-99.99,,2013-04-15 00:23:00,
2013-04-14 20:33:00,37.0,30.0,30.16,North,0,0.0,-999.0,74,-99.99,,,-99.99,,2013-04-15 00:33:00,
2013-04-14 20:42:00,37.0,32.0,30.16,North,0,0.0,-999.0,80,-99.99,,,-99.99,,2013-04-15 00:42:00,
2013-04-14 20:52:00,36.0,30.0,30.18,North,0,0.0,-999.0,80,-99.99,,,-99.99,,2013-04-15 00:52:00,
2013-04-14 21:02:00,36.0,30.0,30.18,North,0,0.0,-999.0,80,-99.99,,,-99.99,,2013-04-15 01:02:00,
2013-04-14 21:12:00,36.0,30.0,30.18,North,0,0.0,-999.0,80,-99.99,,,-99.99,,2013-04-15 01:12:00,
2013-04-14 21:23:00,36.0,30.0,30.18,North,0,0.0,-999.0,80,-99.99,,,-99.99,,2013-04-15 01:23:00,
2013-04-14 21:33:00,34.0,30.0,30.18,North,0,0.0,-999.0,86,-99.99,,,-99.99,,2013-04-15 01:33:00,
2013-04-14 21:42:00,34.0,30.0,30.18,North,0,0.0,-999.0,86,-99.99,,,-99.99,,2013-04-15 01:42:00,
2013-04-14 21:52:00,34.0,30.0,30.19,North,0,0.0,-999.0,86,-99.99,,,-99.99,,2013-04-15 01:52:00,
2013-04-14 22:03:00,34.0,30.0,30.19,North,0,0.0,-999.0,86,-99.99,,,-99.99,,2013-04-15 02:03:00,
2013-04-14 22:12:00,34.0,30.0,30.19,North,0,0.0,-999.0,86,-99.99,,,-99.99,,2013-04-15 02:12:00,
2013-04-14 22:22:00,34.0,30.0,30.19,North,0,0.0,-999.0,86,-99.99,,,-99.99,,2013-04-15 02:22:00,
2013-04-14 22:32:00,32.0,28.0,30.19,North,0,0.0,-999.0,86,-99.99,,,-99.99,,2013-04-15 02:32:00,
2013-04-14 22:42:00,32.0,28.0,30.19,North,0,0.0,-999.0,86,-99.99,,,-99.99,,2013-04-15 02:42:00,
2013-04-14 22:52:00,32.0,30.0,30.19,North,0,0.0,-999.0,92,-99.99,,,-99.99,,2013-04-15 02:52:00,
2013-04-14 23:03:00,32.0,30.0,30.19,North,0,0.0,-999.0,92,-99.99,,,-99.99,,2013-04-15 03:03:00,
2013-04-14 23:12:00,32.0,28.0,30.19,North,0,0.0,-999.0,86,-99.99,,,-99.99,,2013-04-15 03:12:00,
2013-04-14 23:22:00,32.0,28.0,30.19,North,0,0.0,-999.0,86,-99.99,,,-99.99,,2013-04-15 03:22:00,
2013-04-14 23:33:00,32.0,28.0,30.20,North,0,0.0,-999.0,86,-99.99,,,-99.99,,2013-04-15 03:33:00,
2013-04-14 23:43:00,32.0,28.0,30.20,North,0,0.0,-999.0,86,-99.99,,,-99.99,,2013-04-15 03:43:00,
2013-04-14 23:54:00,32.0,30.0,30.21,North,0,0.0,-999.0,92,-99.99,,,-99.99,,2013-04-15 03:54:00,